Latest Coastal Weather Observations for Cerberus

IDV60701

Issued at 6:11 am EDT Tuesday 9 February 2016 (issued every 10 minutes, with the page automatically refreshed every 10 minutes)

About coastal observations | Map of coastal stations | Coastal observations for VIC | Marine services | Other Formats
Station Details ID: 086361 Name: CERBERUS Lat: -38.36 Lon: 145.18 Height: 12.69 m
Data from the previous 72 hours. | See also: Recent months at Cerberus
Date/Time
EDT
Temp

°C
Wind Pressure Rain
since 9am
mm
Weather Cloud Vis
km
Sea
Height
m
Swell
Dir
 
Speed
knots
Gust
knots
hPa Trend Height
m
Period
s
Dir
09/06:00am 17.5 CALM 0 5 1021.1 - 0.0 - - - - - - -
09/05:30am 17.5 ESE 2 7 1021.1 - 0.0 - - - - - - -
09/05:00am 17.5 ENE 2 6 1021.0 - 0.0 - - - - - - -
09/04:30am 17.5 E 4 6 1021.0 - 0.0 - - - - - - -
09/04:00am 17.6 ESE 4 9 1021.1 - 0.0 - - - - - - -
09/03:30am 17.3 E 5 8 1021.3 - 0.0 - - - - - - -
09/03:00am 17.3 E 4 7 1021.5 - 0.0 - - - - - - -
09/02:30am 17.3 ESE 5 9 1021.7 - 0.0 - - - - - - -
09/02:00am 17.3 ESE 6 9 1022.0 - 0.0 - - - - - - -
09/01:30am 17.5 E 6 9 1022.2 - 0.0 - - - - - - -
09/01:00am 17.6 ESE 5 9 1022.5 - 0.0 - - - - - - -
09/12:30am 17.4 E 5 9 1022.6 - 0.0 - - - - - - -
09/12:00am 17.9 E 6 10 1022.7 - 0.0 - - - - - - -
 
Date/Time
EDT
Temp

°C
Wind Pressure Rain
since 9am
mm
Weather Cloud Vis
km
Sea
Height
m
Swell
Dir
 
Speed
knots
Gust
knots
hPa Trend Height
m
Period
s
Dir
08/11:30pm 18.0 ENE 4 10 1022.9 - 0.0 - - - - - - -
08/11:00pm 18.1 E 7 11 1022.9 - 0.0 - - - - - - -
08/10:30pm 18.4 E 7 13 1022.9 - 0.0 - - - - - - -
08/10:00pm 18.5 ESE 7 10 1023.0 - 0.0 - - - - - - -
08/09:30pm 18.7 E 7 11 1022.8 - 0.0 - - - - - - -
08/09:00pm 18.7 SE 9 14 1022.5 - 0.0 - - - - - - -
08/08:30pm 18.8 SSE 7 11 1022.3 - 0.0 - - - - - - -
08/08:00pm 18.9 SE 8 14 1022.1 - 0.0 - - - - - - -
08/07:30pm 19.5 SE 8 15 1021.9 - 0.0 - - - - - - -
08/07:00pm 19.3 SE 8 11 1021.7 - 0.0 - - - - - - -
08/06:30pm 19.9 SSE 8 13 1021.7 - 0.0 - - - - - - -
08/06:00pm 20.3 SSE 10 15 1021.7 - 0.0 - - - - - - -
08/05:30pm 20.4 SSE 9 13 1021.7 - 0.0 - - - - - - -
08/05:00pm 20.8 S 9 14 1021.8 - 0.0 - - - - - - -
08/04:30pm 21.4 S 9 14 1022.0 - 0.0 - - - - - - -
08/04:00pm 20.9 SE 9 14 1022.1 - 0.0 - - - - - - -
08/03:30pm 20.5 SSE 9 13 1022.3 - 0.0 - - - - - - -
08/03:00pm 20.8 SSE 10 15 1022.4 - 0.0 - - - - - - -
08/02:30pm 22.1 SSE 12 16 1022.4 - 0.0 - - - - - - -
08/02:00pm 21.6 S 11 16 1022.4 - 0.0 - - - - - - -
08/01:30pm 22.1 SSE 11 17 1022.5 - 0.0 - - - - - - -
08/01:00pm 22.0 SSE 8 13 1022.4 - 0.0 - - - - - - -
08/12:30pm 21.7 SSE 10 15 1022.5 - 0.0 - - - - - - -
08/12:00pm 21.3 SSE 9 16 1022.6 - 0.0 - - - - - - -
08/11:30am 21.6 S 9 14 1022.6 - 0.0 - - - - - - -
08/11:00am 21.8 SSE 9 14 1022.6 - 0.0 - - - - - - -
08/10:30am 21.0 SE 9 13 1022.5 - 0.0 - - - - - - -
08/10:00am 21.1 SSE 8 12 1022.3 - 0.0 - - - - - - -
08/09:30am 20.6 SSE 7 10 1022.2 - 0.0 - - - - - - -
08/09:00am 19.6 SSE 7 11 1022.1 - 0.0 - - - - - - -
08/08:30am 18.6 SW 1 6 1021.6 - 0.0 - - - - - - -
08/08:00am 17.1 CALM 0 0 1021.4 - 0.0 - - - - - - -
08/07:30am 15.2 CALM 0 0 1021.0 - 0.0 - - - - - - -
08/07:00am 14.7 CALM 0 0 1020.8 - 0.0 - - - - - - -
08/06:30am 14.0 CALM 0 0 1020.6 - 0.0 - - - - - - -
08/06:00am 14.4 CALM 0 0 1020.3 - 0.0 - - - - - - -
08/05:30am 14.5 WSW 2 3 1020.1 - 0.0 - - - - - - -
08/05:00am 14.9 CALM 0 0 1020.0 - 0.0 - - - - - - -
08/04:30am 15.2 CALM 0 0 1019.9 - 0.0 - - - - - - -
08/04:00am 15.8 CALM 0 0 1019.9 - 0.0 - - - - - - -
08/03:30am 16.4 SSW 1 4 1019.7 - 0.0 - - - - - - -
08/03:00am 16.9 SSW 3 4 1019.6 - 0.0 - - - - - - -
08/02:30am 17.9 SSE 4 6 1019.7 - 0.0 - - - - - - -
08/02:00am 18.1 SE 5 8 1020.0 - 0.0 - - - - - - -
08/01:30am 18.3 SE 7 11 1020.1 - 0.0 - - - - - - -
08/01:00am 18.4 SSE 6 11 1020.1 - 0.0 - - - - - - -
08/12:30am 18.4 SSE 7 12 1019.7 - 0.0 - - - - - - -
08/12:00am 17.6 S 5 7 1019.7 - 0.0 - - - - - - -
 
Date/Time
EDT
Temp

°C
Wind Pressure Rain
since 9am
mm
Weather Cloud Vis
km
Sea
Height
m
Swell
Dir
 
Speed
knots
Gust
knots
hPa Trend Height
m
Period
s
Dir
07/11:30pm 17.5 SW 4 5 1019.7 - 0.0 - - - - - - -
07/11:00pm 18.0 S 3 6 1019.6 - 0.0 - - - - - - -
07/10:30pm 18.5 SSE 3 6 1019.4 - 0.0 - - - - - - -
07/10:00pm 18.7 SSE 4 5 1019.2 - 0.0 - - - - - - -
07/09:30pm 18.9 S 5 9 1018.8 - 0.0 - - - - - - -
07/09:00pm 19.3 S 7 11 1018.6 - 0.0 - - - - - - -
07/08:30pm 19.4 SSW 7 10 1018.2 - 0.0 - - - - - - -
07/08:00pm 19.9 S 7 12 1017.8 - 0.0 - - - - - - -
07/07:30pm 20.4 S 9 13 1017.3 - 0.0 - - - - - - -
07/07:00pm 20.7 S 11 14 1016.8 - 0.0 - - - - - - -
07/06:30pm 21.2 S 11 16 1016.7 - 0.0 - - - - - - -
07/06:00pm 21.9 SW 10 14 1016.6 - 0.0 - - - - - - -
07/05:30pm 22.5 SSW 10 14 1016.4 - 0.0 - - - - - - -
07/05:00pm 22.7 SSW 10 16 1016.4 - 0.0 - - - - - - -
07/04:30pm 22.7 SSW 11 17 1016.3 - 0.0 - - - - - - -
07/04:00pm 24.5 SSW 8 12 1016.2 - 0.0 - - - - - - -
07/03:30pm 24.2 SSW 9 12 1016.3 - 0.0 - - - - - - -
07/03:00pm 23.5 SSW 10 15 1016.4 - 0.0 - - - - - - -
07/02:30pm 24.2 SSW 11 17 1016.5 - 0.0 - - - - - - -
07/02:00pm 23.3 SW 13 20 1016.7 - 0.0 - - - - - - -
07/01:30pm 24.7 SSW 11 16 1016.6 - 0.0 - - - - - - -
07/01:00pm 24.5 SSW 9 13 1016.4 - 0.0 - - - - - - -
07/12:30pm 26.6 SSW 5 8 1016.5 - 0.0 - - - - - - -
07/12:00pm 25.4 SSW 5 8 1016.7 - 0.0 - - - - - - -
07/11:30am 25.1 SSW 6 9 1016.7 - 0.0 - - - - - - -
07/11:00am 25.4 SSE 4 7 1016.8 - 0.0 - - - - - - -
07/10:30am 26.5 N 3 6 1017.0 - 0.0 - - - - - - -
07/10:00am 25.6 ESE 1 4 1016.9 - 0.0 - - - - - - -
07/09:30am 23.5 S 1 5 1016.7 - 0.0 - - - - - - -
07/09:00am 21.6 CALM 0 2 1016.7 - 0.0 - - - - - - -
07/08:30am 20.5 CALM 0 0 1016.2 - 0.0 - - - - - - -
07/08:00am 18.3 CALM 0 0 1015.9 - 0.0 - - - - - - -
07/07:30am 17.4 CALM 0 5 1015.6 - 0.0 - - - - - - -
07/07:00am 15.8 CALM 0 0 1015.4 - 0.0 - - - - - - -
07/06:30am 16.6 CALM 0 4 1015.1 - 0.0 - - - - - - -
07/06:00am 16.2 CALM 0 0 1014.7 - 0.0 - - - - - - -
07/05:30am 16.6 CALM 0 0 1014.5 - 0.0 - - - - - - -
07/05:00am 17.6 CALM 0 0 1014.5 - 0.0 - - - - - - -
07/04:30am 18.2 CALM 0 0 1014.4 - 0.0 - - - - - - -
07/04:00am 18.4 CALM 0 0 1014.5 - 0.0 - - - - - - -
07/03:30am 18.3 CALM 0 0 1014.5 - 0.0 - - - - - - -
07/03:00am 18.0 CALM 0 0 1014.5 - 0.0 - - - - - - -
07/02:30am 17.4 CALM 0 0 1014.7 - 0.0 - - - - - - -
07/02:00am 18.0 CALM 0 0 1015.0 - 0.0 - - - - - - -
07/01:30am 19.0 CALM 0 0 1015.2 - 0.0 - - - - - - -
07/01:00am 19.5 CALM 0 2 1015.3 - 0.0 - - - - - - -
07/12:30am 20.4 NNE 2 4 1015.3 - 0.0 - - - - - - -
07/12:00am 21.0 N 4 8 1015.3 - 0.0 - - - - - - -
 
Date/Time
EDT
Temp

°C
Wind Pressure Rain
since 9am
mm
Weather Cloud Vis
km
Sea
Height
m
Swell
Dir
 
Speed
knots
Gust
knots
hPa Trend Height
m
Period
s
Dir
06/11:30pm 21.4 N 4 6 1015.5 - 0.0 - - - - - - -
06/11:00pm 21.6 N 4 7 1015.5 - 0.0 - - - - - - -
06/10:30pm 22.6 N 5 7 1015.5 - 0.0 - - - - - - -
06/10:00pm 23.3 N 5 8 1015.3 - 0.0 - - - - - - -
06/09:30pm 24.1 NNE 5 10 1014.8 - 0.0 - - - - - - -
06/09:00pm 24.2 ESE 1 6 1014.3 - 0.0 - - - - - - -
06/08:30pm 24.6 ESE 5 9 1013.9 - 0.0 - - - - - - -
06/08:00pm 25.4 ESE 8 15 1013.6 - 0.0 - - - - - - -
06/07:30pm 26.9 ESE 9 14 1013.5 - 0.0 - - - - - - -
06/07:00pm 27.7 SE 9 14 1013.6 - 0.0 - - - - - - -
06/06:30pm 28.4 ESE 8 13 1013.5 - 0.0 - - - - - - -
06/06:00pm 28.7 ESE 7 11 1013.7 - 0.0 - - - - - - -
06/05:30pm 29.0 ESE 7 13 1013.6 - 0.0 - - - - - - -
06/05:00pm 29.1 ESE 8 13 1013.9 - 0.0 - - - - - - -
06/04:30pm 29.5 ESE 8 11 1014.1 - 0.0 - - - - - - -
06/04:00pm 30.4 ESE 4 7 1014.4 - 0.0 - - - - - - -
06/03:30pm 29.7 ESE 6 9 1014.8 - 0.0 - - - - - - -
06/03:00pm 29.9 E 8 11 1014.9 - 0.0 - - - - - - -
06/02:30pm 29.8 ENE 7 11 1015.1 - 0.0 - - - - - - -
06/02:00pm 28.6 ENE 7 10 1015.5 - 0.0 - - - - - - -
06/01:30pm 28.4 ENE 6 11 1015.9 - 0.0 - - - - - - -
06/01:00pm 28.0 NE 7 10 1016.3 - 0.0 - - - - - - -
06/12:30pm 27.3 NNE 5 10 1016.7 - 0.0 - - - - - - -
06/12:00pm 26.8 N 6 11 1017.0 - 0.0 - - - - - - -
06/11:30am 25.9 N 5 9 1017.2 - 0.0 - - - - - - -
06/11:00am 24.6 N 6 9 1017.4 - 0.0 - - - - - - -
06/10:30am 22.9 N 5 9 1017.5 - 0.0 - - - - - - -
06/10:00am 21.9 N 5 9 1017.6 - 0.0 - - - - - - -
06/09:30am 21.0 N 5 8 1017.8 - 0.0 - - - - - - -
06/09:00am 19.8 N 5 10 1017.8 - 0.0 - - - - - - -
06/08:30am 19.6 N 3 9 1017.6 - 0.0 - - - - - - -
06/08:00am 18.7 N 3 9 1017.5 - 0.0 - - - - - - -
06/07:30am 18.0 N 5 11 1017.2 - 0.0 - - - - - - -
06/07:00am 17.4 N 3 9 1017.0 - 0.0 - - - - - - -
06/06:30am 17.4 N 3 10 1016.9 - 0.0 - - - - - - -

Other Formats:

Comma delimited format used in spreadsheet applications
http://www.bom.gov.au/fwo/IDV60701/IDV60701.94898.axf

JavaScript Object Notation format (JSON) in row-major order
http://www.bom.gov.au/fwo/IDV60701/IDV60701.94898.json